createdAt,value
2022-11-05T00:01:52.946Z,100.00
2022-11-05T00:04:38.059Z,100.00
2022-11-05T00:07:29.855Z,100.00
2022-11-05T00:10:00.747Z,100.00
2022-11-05T00:12:45.972Z,100.00
2022-11-05T00:15:31.241Z,100.00
2022-11-05T00:17:57.901Z,100.00
2022-11-05T00:20:24.515Z,100.00
2022-11-05T00:23:09.710Z,100.00
2022-11-05T00:25:36.485Z,100.00
2022-11-05T00:28:03.583Z,100.00
2022-11-05T00:30:30.425Z,100.00
2022-11-05T00:33:00.656Z,100.00
2022-11-05T00:35:27.255Z,100.00
2022-11-05T00:37:54.139Z,100.00
2022-11-05T00:40:20.701Z,100.00
2022-11-05T00:43:06.051Z,100.00
2022-11-05T00:45:32.724Z,100.00
2022-11-05T00:48:18.004Z,100.00
2022-11-05T00:50:44.668Z,100.00
2022-11-05T00:53:11.630Z,100.00
2022-11-05T00:55:42.632Z,100.00
2022-11-05T00:58:10.706Z,100.00
2022-11-05T01:00:38.378Z,100.00
2022-11-05T01:03:06.824Z,100.00
2022-11-05T01:05:34.034Z,100.00
2022-11-05T01:08:01.165Z,100.00
2022-11-05T01:10:27.799Z,100.00
2022-11-05T01:12:54.508Z,100.00
2022-11-05T01:15:21.452Z,100.00
2022-11-05T01:17:48.121Z,100.00
2022-11-05T01:20:14.866Z,100.00
2022-11-05T01:22:41.486Z,100.00
2022-11-05T01:25:08.664Z,100.00
2022-11-05T01:27:36.534Z,100.00
2022-11-05T01:30:03.743Z,100.00
2022-11-05T01:32:30.881Z,100.00
2022-11-05T01:34:57.524Z,100.00
2022-11-05T01:37:24.109Z,100.00
2022-11-05T01:39:50.656Z,100.00
2022-11-05T01:42:21.387Z,100.00
2022-11-05T01:44:57.066Z,100.00
2022-11-05T01:47:33.451Z,100.00
2022-11-05T01:50:02.223Z,100.00
2022-11-05T01:52:30.494Z,100.00
2022-11-05T01:54:57.260Z,100.00
2022-11-05T01:57:23.878Z,100.00
2022-11-05T01:59:53.372Z,100.00
2022-11-05T02:02:20.052Z,100.00
2022-11-05T02:04:50.720Z,100.00
2022-11-05T02:07:17.964Z,100.00
2022-11-05T02:09:48.291Z,100.00
2022-11-05T02:12:15.211Z,100.00
2022-11-05T02:14:41.946Z,100.00
2022-11-05T02:17:27.274Z,100.00
2022-11-05T02:20:00.073Z,100.00
2022-11-05T02:22:41.623Z,100.00
2022-11-05T02:25:23.506Z,100.00
2022-11-05T02:27:59.184Z,100.00
2022-11-05T02:30:25.707Z,100.00
2022-11-05T02:33:01.052Z,100.00
2022-11-05T02:35:27.632Z,100.00
2022-11-05T02:37:56.453Z,100.00
2022-11-05T02:40:25.794Z,100.00
2022-11-05T02:42:52.340Z,100.00
2022-11-05T02:45:30.172Z,100.00
2022-11-05T02:47:59.468Z,100.00
2022-11-05T02:50:39.865Z,100.00
2022-11-05T02:53:06.404Z,100.00
2022-11-05T02:55:44.941Z,100.00
2022-11-05T02:58:11.739Z,100.00
2022-11-05T03:00:41.968Z,100.00
2022-11-05T03:03:13.075Z,100.00
2022-11-05T03:05:45.108Z,100.00
2022-11-05T03:08:19.692Z,100.00
2022-11-05T03:10:47.952Z,100.00
2022-11-05T03:13:17.703Z,100.00
2022-11-05T03:15:48.961Z,100.00
2022-11-05T03:18:16.000Z,100.00
2022-11-05T03:20:45.655Z,100.00
2022-11-05T03:23:25.028Z,100.00
2022-11-05T03:25:57.957Z,100.00
2022-11-05T03:28:26.387Z,100.00
2022-11-05T03:30:55.303Z,100.00
2022-11-05T03:33:24.149Z,100.00
2022-11-05T03:35:55.555Z,100.00
2022-11-05T03:38:24.707Z,100.00
2022-11-05T03:40:53.520Z,100.00
2022-11-05T03:43:21.139Z,100.00
2022-11-05T03:45:49.920Z,100.00
2022-11-05T03:48:18.058Z,100.00
2022-11-05T03:50:55.166Z,100.00
2022-11-05T03:53:24.687Z,100.00
2022-11-05T03:56:06.770Z,100.00
2022-11-05T03:58:34.240Z,100.00
2022-11-05T04:01:03.197Z,100.00
2022-11-05T04:03:36.389Z,100.00
2022-11-05T04:06:22.424Z,100.00
2022-11-05T04:09:07.782Z,100.00
2022-11-05T04:11:53.081Z,100.00
2022-11-05T04:14:19.615Z,100.00
2022-11-05T04:17:04.536Z,100.00
2022-11-05T04:19:49.788Z,100.00
2022-11-05T04:22:35.131Z,100.00
2022-11-05T04:25:01.703Z,100.00
2022-11-05T04:27:28.302Z,100.00
2022-11-05T04:30:13.315Z,100.00
2022-11-05T04:32:39.887Z,100.00
2022-11-05T04:35:06.495Z,100.00
2022-11-05T04:37:33.118Z,100.00
2022-11-05T04:39:59.700Z,100.00
2022-11-05T04:42:26.390Z,100.00
2022-11-05T04:44:52.986Z,100.00
2022-11-05T04:47:19.568Z,100.00
2022-11-05T04:49:46.168Z,100.00
2022-11-05T04:52:12.710Z,100.00
2022-11-05T04:54:39.327Z,100.00
2022-11-05T04:57:05.908Z,100.00
2022-11-05T04:59:32.527Z,100.00
2022-11-05T05:01:59.233Z,100.00
2022-11-05T05:04:25.909Z,100.00
2022-11-05T05:06:52.525Z,100.00
2022-11-05T05:09:19.124Z,100.00
2022-11-05T05:11:45.718Z,100.00
2022-11-05T05:14:12.691Z,100.00
2022-11-05T05:16:39.262Z,100.00
2022-11-05T05:19:06.102Z,100.00
2022-11-05T05:21:42.360Z,100.00
2022-11-05T05:24:16.053Z,100.00
2022-11-05T05:26:43.934Z,100.00
2022-11-05T05:29:11.113Z,100.00
2022-11-05T05:31:38.110Z,100.00
2022-11-05T05:34:05.522Z,100.00
2022-11-05T05:36:32.609Z,100.00
2022-11-05T05:38:59.160Z,100.00
2022-11-05T05:41:25.754Z,100.00
2022-11-05T05:43:52.537Z,100.00
2022-11-05T05:46:19.948Z,100.00
2022-11-05T05:48:50.621Z,100.00
2022-11-05T05:51:17.745Z,100.00
2022-11-05T05:53:44.530Z,100.00
2022-11-05T05:56:15.014Z,100.00
2022-11-05T05:58:41.965Z,100.00
2022-11-05T06:01:14.131Z,100.00
2022-11-05T06:03:43.969Z,100.00
2022-11-05T06:06:13.165Z,100.00
2022-11-05T06:08:40.136Z,100.00
2022-11-05T06:11:06.755Z,100.00
2022-11-05T06:13:33.470Z,100.00
2022-11-05T06:16:03.885Z,100.00
2022-11-05T06:18:31.829Z,100.00
2022-11-05T06:21:05.526Z,100.00
2022-11-05T06:23:32.955Z,100.00
2022-11-05T06:26:03.246Z,100.00
2022-11-05T06:28:32.880Z,100.00
2022-11-05T06:30:59.865Z,100.00
2022-11-05T06:33:26.992Z,100.00
2022-11-05T06:35:54.218Z,100.00
2022-11-05T06:38:20.931Z,100.00
2022-11-05T06:40:47.561Z,100.00
2022-11-05T06:43:14.347Z,100.00
2022-11-05T06:45:41.328Z,100.00
2022-11-05T06:48:08.161Z,100.00
2022-11-05T06:50:34.737Z,100.00
2022-11-05T06:53:02.320Z,100.00
2022-11-05T06:55:30.856Z,100.00
2022-11-05T06:57:57.692Z,100.00
2022-11-05T07:00:24.264Z,100.00
2022-11-05T07:02:50.918Z,100.00
2022-11-05T07:05:17.568Z,100.00
2022-11-05T07:07:44.956Z,100.00
2022-11-05T07:10:12.922Z,100.00
2022-11-05T07:12:39.518Z,100.00
2022-11-05T07:15:06.482Z,100.00
2022-11-05T07:17:33.286Z,100.00
2022-11-05T07:19:59.895Z,100.00
2022-11-05T07:22:26.445Z,100.00
2022-11-05T07:24:52.990Z,100.00
2022-11-05T07:27:19.613Z,100.00
2022-11-05T07:29:46.221Z,100.00
2022-11-05T07:32:12.836Z,100.00
2022-11-05T07:34:39.530Z,100.00
2022-11-05T07:37:06.602Z,100.00
2022-11-05T07:39:33.310Z,100.00
2022-11-05T07:41:59.885Z,100.00
2022-11-05T07:44:26.462Z,100.00
2022-11-05T07:46:53.130Z,100.00
2022-11-05T07:49:19.789Z,100.00
2022-11-05T07:51:46.356Z,100.00
2022-11-05T07:54:12.941Z,100.00
2022-11-05T07:56:39.600Z,100.00
2022-11-05T07:59:06.284Z,100.00
2022-11-05T08:01:33.065Z,100.00
2022-11-05T08:03:59.815Z,100.00
2022-11-05T08:06:26.411Z,100.00
2022-11-05T08:08:52.993Z,100.00
2022-11-05T08:11:19.578Z,100.00
2022-11-05T08:13:46.135Z,100.00
2022-11-05T08:16:12.815Z,100.00
2022-11-05T08:18:39.635Z,100.00
2022-11-05T08:21:06.338Z,94.35
2022-11-05T08:23:32.979Z,86.07
2022-11-05T08:26:02.456Z,84.30
2022-11-05T08:28:29.015Z,82.30
2022-11-05T08:30:56.454Z,83.31
2022-11-05T08:33:24.024Z,87.33
2022-11-05T08:35:50.696Z,94.02
2022-11-05T08:38:19.389Z,96.67
2022-11-05T08:40:53.531Z,97.66
2022-11-05T08:43:20.370Z,98.01
2022-11-05T08:45:46.931Z,100.00
2022-11-05T08:48:17.346Z,97.44
2022-11-05T08:50:44.852Z,92.60
2022-11-05T08:53:12.274Z,92.23
2022-11-05T08:55:39.273Z,92.90
2022-11-05T08:58:07.796Z,93.62
2022-11-05T09:00:35.585Z,94.01
2022-11-05T09:03:03.391Z,94.05
2022-11-05T09:05:31.063Z,95.12
2022-11-05T09:08:00.906Z,96.23
2022-11-05T09:10:28.637Z,96.83
2022-11-05T09:12:55.290Z,98.46
2022-11-05T09:15:23.339Z,99.06
2022-11-05T09:17:50.125Z,100.00
2022-11-05T09:20:16.734Z,99.00
2022-11-05T09:22:43.650Z,98.30
2022-11-05T09:25:10.591Z,99.53
2022-11-05T09:27:37.182Z,99.81
2022-11-05T09:30:04.547Z,99.16
2022-11-05T09:32:31.640Z,99.10
2022-11-05T09:35:00.564Z,98.06
2022-11-05T09:37:28.208Z,98.26
2022-11-05T09:39:55.118Z,98.34
2022-11-05T09:42:24.060Z,97.01
2022-11-05T09:44:55.608Z,96.94
2022-11-05T09:47:26.111Z,96.86
2022-11-05T09:49:54.511Z,95.49
2022-11-05T09:52:22.881Z,93.58
2022-11-05T09:54:50.527Z,93.99
2022-11-05T09:57:19.860Z,93.40
2022-11-05T09:59:48.810Z,93.70
2022-11-05T10:02:23.190Z,94.52
2022-11-05T10:04:51.809Z,93.72
2022-11-05T10:07:20.830Z,94.37
2022-11-05T10:09:49.339Z,94.59
2022-11-05T10:12:20.544Z,94.53
2022-11-05T10:14:48.843Z,94.18
2022-11-05T10:17:18.550Z,93.22
2022-11-05T10:19:49.510Z,93.90
2022-11-05T10:22:17.045Z,93.26
2022-11-05T10:24:46.547Z,92.39
2022-11-05T10:27:18.200Z,91.91
2022-11-05T10:29:45.397Z,92.05
2022-11-05T10:32:17.754Z,90.89
2022-11-05T10:34:44.742Z,91.68
2022-11-05T10:37:11.392Z,91.94
2022-11-05T10:39:38.080Z,92.60
2022-11-05T10:42:05.024Z,92.08
2022-11-05T10:44:51.878Z,93.52
2022-11-05T10:47:21.386Z,93.98
2022-11-05T10:49:53.539Z,94.48
2022-11-05T10:52:26.378Z,93.67
2022-11-05T10:54:55.225Z,94.44
2022-11-05T10:57:27.876Z,94.95
2022-11-05T10:59:57.715Z,93.38
2022-11-05T11:02:28.413Z,93.79
2022-11-05T11:04:56.690Z,94.16
2022-11-05T11:07:24.730Z,92.40
2022-11-05T11:09:51.777Z,94.14
2022-11-05T11:12:26.154Z,93.76
2022-11-05T11:15:01.586Z,93.60
2022-11-05T11:17:29.516Z,93.84
2022-11-05T11:20:14.563Z,94.22
2022-11-05T11:22:41.197Z,94.34
2022-11-05T11:25:19.171Z,95.57
2022-11-05T11:27:45.832Z,94.55
2022-11-05T11:30:16.864Z,95.05
2022-11-05T11:32:43.602Z,95.89
2022-11-05T11:35:19.959Z,97.98
2022-11-05T11:37:46.892Z,98.28
2022-11-05T11:40:13.431Z,97.46
2022-11-05T11:42:41.103Z,97.43
2022-11-05T11:45:15.202Z,98.58
2022-11-05T11:47:46.142Z,99.02
2022-11-05T11:50:31.206Z,99.25
2022-11-05T11:53:16.361Z,97.76
2022-11-05T11:55:55.003Z,98.48
2022-11-05T11:58:34.968Z,99.54
2022-11-05T12:01:21.826Z,99.55
2022-11-05T12:03:51.611Z,100.00
2022-11-05T12:06:33.266Z,100.00
2022-11-05T12:09:10.805Z,100.00
2022-11-05T12:11:46.463Z,100.00
2022-11-05T12:14:16.134Z,100.00
2022-11-05T12:16:58.855Z,100.00
2022-11-05T12:19:34.505Z,100.00
2022-11-05T12:22:17.496Z,100.00
2022-11-05T12:24:44.074Z,100.00
2022-11-05T12:27:20.067Z,100.00
2022-11-05T12:30:03.037Z,100.00
2022-11-05T12:32:35.479Z,100.00
2022-11-05T12:35:11.272Z,100.00
2022-11-05T12:37:47.197Z,100.00
2022-11-05T12:40:32.875Z,100.00
2022-11-05T12:43:03.604Z,100.00
2022-11-05T12:45:36.142Z,100.00
2022-11-05T12:48:26.523Z,100.00
2022-11-05T12:51:09.624Z,100.00
2022-11-05T12:53:36.192Z,100.00
2022-11-05T12:56:07.001Z,100.00
2022-11-05T12:58:53.793Z,100.00
2022-11-05T13:01:25.455Z,100.00
2022-11-05T13:03:58.014Z,100.00
2022-11-05T13:06:27.594Z,100.00
2022-11-05T13:08:57.317Z,100.00
2022-11-05T13:11:42.408Z,100.00
2022-11-05T13:14:17.797Z,100.00
2022-11-05T13:17:06.644Z,100.00
2022-11-05T13:19:40.384Z,100.00
2022-11-05T13:22:16.479Z,100.00
2022-11-05T13:24:50.359Z,100.00
2022-11-05T13:27:29.375Z,100.00
2022-11-05T13:29:59.771Z,100.00
2022-11-05T13:32:34.564Z,100.00
2022-11-05T13:35:03.319Z,100.00
2022-11-05T13:37:54.936Z,100.00
2022-11-05T13:40:25.735Z,100.00
2022-11-05T13:43:22.069Z,100.00
2022-11-05T13:46:06.154Z,100.00
2022-11-05T13:48:49.515Z,100.00
2022-11-05T13:51:30.689Z,100.00
2022-11-05T13:54:08.301Z,100.00
2022-11-05T13:56:37.772Z,100.00
2022-11-05T13:59:04.530Z,100.00
2022-11-05T14:01:47.472Z,100.00
2022-11-05T14:04:15.714Z,100.00
2022-11-05T14:06:42.497Z,100.00
2022-11-05T14:09:11.265Z,100.00
2022-11-05T14:11:42.009Z,100.00
2022-11-05T14:14:10.287Z,100.00
2022-11-05T14:17:00.138Z,100.00
2022-11-05T14:19:32.666Z,100.00
2022-11-05T14:21:59.350Z,100.00
2022-11-05T14:24:38.522Z,100.00
2022-11-05T14:27:05.581Z,100.00
2022-11-05T14:29:42.726Z,100.00
2022-11-05T14:32:21.786Z,100.00
2022-11-05T14:34:54.434Z,100.00
2022-11-05T14:37:32.061Z,100.00
2022-11-05T14:40:03.768Z,100.00
2022-11-05T14:42:31.396Z,100.00
2022-11-05T14:45:03.758Z,100.00
2022-11-05T14:47:35.981Z,100.00
2022-11-05T14:50:19.220Z,100.00
2022-11-05T14:52:56.221Z,100.00
2022-11-05T14:55:31.967Z,100.00
2022-11-05T14:57:58.600Z,100.00
2022-11-05T15:00:40.851Z,100.00
2022-11-05T15:03:26.223Z,100.00
2022-11-05T15:06:03.183Z,100.00
2022-11-05T15:08:29.817Z,100.00
2022-11-05T15:11:06.752Z,100.00
2022-11-05T15:13:36.619Z,100.00
2022-11-05T15:16:03.892Z,100.00
2022-11-05T15:18:33.653Z,100.00
2022-11-05T15:21:02.033Z,100.00
2022-11-05T15:23:41.260Z,100.00
2022-11-05T15:26:13.355Z,100.00
2022-11-05T15:28:47.241Z,100.00
2022-11-05T15:31:13.771Z,100.00
2022-11-05T15:33:41.342Z,100.00
2022-11-05T15:36:17.618Z,100.00
2022-11-05T15:39:02.046Z,100.00
2022-11-05T15:41:34.476Z,100.00
2022-11-05T15:44:03.244Z,100.00
2022-11-05T15:46:30.106Z,100.00
2022-11-05T15:49:15.176Z,100.00
2022-11-05T15:51:42.908Z,100.00
2022-11-05T15:54:35.095Z,100.00
2022-11-05T15:57:02.210Z,100.00
2022-11-05T15:59:29.805Z,100.00
2022-11-05T16:02:18.673Z,100.00
2022-11-05T16:04:47.463Z,100.00
2022-11-05T16:07:14.828Z,100.00
2022-11-05T16:09:44.428Z,100.00
2022-11-05T16:12:15.740Z,100.00
2022-11-05T16:14:43.069Z,100.00
2022-11-05T16:17:23.236Z,100.00
2022-11-05T16:19:50.924Z,100.00
2022-11-05T16:22:18.315Z,100.00
2022-11-05T16:24:46.535Z,100.00
2022-11-05T16:27:19.423Z,100.00
2022-11-05T16:29:56.663Z,100.00
2022-11-05T16:32:28.625Z,100.00
2022-11-05T16:35:01.283Z,100.00
2022-11-05T16:37:29.576Z,100.00
2022-11-05T16:39:56.222Z,100.00
2022-11-05T16:42:22.836Z,100.00
2022-11-05T16:44:50.381Z,100.00
2022-11-05T16:47:17.583Z,100.00
2022-11-05T16:49:44.797Z,100.00
2022-11-05T16:52:12.585Z,100.00
2022-11-05T16:54:39.727Z,100.00
2022-11-05T16:57:07.550Z,100.00
2022-11-05T16:59:34.953Z,100.00
2022-11-05T17:02:01.830Z,100.00
2022-11-05T17:04:28.603Z,100.00
2022-11-05T17:06:55.333Z,100.00
2022-11-05T17:09:22.124Z,100.00
2022-11-05T17:11:48.998Z,100.00
2022-11-05T17:14:19.233Z,100.00
2022-11-05T17:16:46.204Z,100.00
2022-11-05T17:19:16.048Z,100.00
2022-11-05T17:21:43.053Z,100.00
2022-11-05T17:24:11.118Z,100.00
2022-11-05T17:26:38.630Z,100.00
2022-11-05T17:29:05.690Z,100.00
2022-11-05T17:31:32.771Z,100.00
2022-11-05T17:34:00.035Z,100.00
2022-11-05T17:36:27.530Z,100.00
2022-11-05T17:38:54.992Z,100.00
2022-11-05T17:41:22.743Z,100.00
2022-11-05T17:43:54.750Z,100.00
2022-11-05T17:46:21.948Z,100.00
2022-11-05T17:48:49.046Z,100.00
2022-11-05T17:51:16.898Z,100.00
2022-11-05T17:53:44.675Z,100.00
2022-11-05T17:56:22.158Z,100.00
2022-11-05T17:58:55.592Z,100.00
2022-11-05T18:01:27.595Z,100.00
2022-11-05T18:03:54.376Z,100.00
2022-11-05T18:06:21.592Z,100.00
2022-11-05T18:08:48.563Z,100.00
2022-11-05T18:11:15.922Z,100.00
2022-11-05T18:13:42.923Z,100.00
2022-11-05T18:16:09.784Z,100.00
2022-11-05T18:18:36.699Z,100.00
2022-11-05T18:21:03.996Z,100.00
2022-11-05T18:23:31.371Z,100.00
2022-11-05T18:25:58.883Z,100.00
2022-11-05T18:28:26.119Z,100.00
2022-11-05T18:30:52.901Z,100.00
2022-11-05T18:33:19.874Z,100.00
2022-11-05T18:35:46.971Z,100.00
2022-11-05T18:38:13.736Z,100.00
2022-11-05T18:40:40.736Z,100.00
2022-11-05T18:43:08.374Z,100.00
2022-11-05T18:45:35.424Z,100.00
2022-11-05T18:48:02.360Z,100.00
2022-11-05T18:50:29.794Z,100.00
2022-11-05T18:52:56.801Z,100.00
2022-11-05T18:55:24.515Z,100.00
2022-11-05T18:57:51.526Z,100.00
2022-11-05T19:00:18.693Z,100.00
2022-11-05T19:02:45.693Z,100.00
2022-11-05T19:05:28.449Z,100.00
2022-11-05T19:07:56.473Z,100.00
2022-11-05T19:10:23.142Z,100.00
2022-11-05T19:12:50.144Z,100.00
2022-11-05T19:15:17.297Z,100.00
2022-11-05T19:17:44.331Z,100.00
2022-11-05T19:20:11.724Z,100.00
2022-11-05T19:22:39.909Z,100.00
2022-11-05T19:25:07.138Z,100.00
2022-11-05T19:27:35.365Z,100.00
2022-11-05T19:30:02.645Z,100.00
2022-11-05T19:32:29.853Z,100.00
2022-11-05T19:34:56.852Z,100.00
2022-11-05T19:37:23.921Z,100.00
2022-11-05T19:39:51.155Z,100.00
2022-11-05T19:42:17.844Z,100.00
2022-11-05T19:44:44.805Z,100.00
2022-11-05T19:47:13.599Z,100.00
2022-11-05T19:49:40.443Z,100.00
2022-11-05T19:52:07.013Z,100.00
2022-11-05T19:54:36.440Z,100.00
2022-11-05T19:57:03.756Z,100.00
2022-11-05T19:59:30.884Z,100.00
2022-11-05T20:01:58.158Z,100.00
2022-11-05T20:04:25.332Z,100.00
2022-11-05T20:06:52.451Z,100.00
2022-11-05T20:09:22.154Z,100.00
2022-11-05T20:11:55.374Z,100.00
2022-11-05T20:14:22.872Z,100.00
2022-11-05T20:16:49.663Z,100.00
2022-11-05T20:19:18.810Z,100.00
2022-11-05T20:21:45.778Z,100.00
2022-11-05T20:24:17.460Z,100.00
2022-11-05T20:26:49.272Z,100.00
2022-11-05T20:29:16.636Z,100.00
2022-11-05T20:31:43.632Z,100.00
2022-11-05T20:34:11.157Z,100.00
2022-11-05T20:36:39.274Z,100.00
2022-11-05T20:39:06.509Z,100.00
2022-11-05T20:41:33.633Z,100.00
2022-11-05T20:44:00.499Z,100.00
2022-11-05T20:46:27.786Z,100.00
2022-11-05T20:48:54.874Z,100.00
2022-11-05T20:51:23.566Z,100.00
2022-11-05T20:53:54.078Z,100.00
2022-11-05T20:56:22.820Z,100.00
2022-11-05T20:58:50.046Z,100.00
2022-11-05T21:01:18.538Z,100.00
2022-11-05T21:03:46.074Z,100.00
2022-11-05T21:06:13.738Z,100.00
2022-11-05T21:08:40.671Z,100.00
2022-11-05T21:11:07.777Z,100.00
2022-11-05T21:13:35.093Z,100.00
2022-11-05T21:16:02.490Z,100.00
2022-11-05T21:18:33.191Z,100.00
2022-11-05T21:21:02.684Z,100.00
2022-11-05T21:23:29.829Z,100.00
2022-11-05T21:25:56.867Z,100.00
2022-11-05T21:28:24.818Z,100.00
2022-11-05T21:30:51.500Z,100.00
2022-11-05T21:33:18.796Z,100.00
2022-11-05T21:35:47.004Z,100.00
2022-11-05T21:38:16.399Z,100.00
2022-11-05T21:40:43.599Z,100.00
2022-11-05T21:43:10.759Z,100.00
2022-11-05T21:45:40.907Z,100.00
2022-11-05T21:48:08.500Z,100.00
2022-11-05T21:50:58.633Z,100.00
2022-11-05T21:53:44.178Z,100.00
2022-11-05T21:56:32.459Z,100.00
2022-11-05T21:59:17.578Z,100.00
2022-11-05T22:01:44.180Z,100.00
2022-11-05T22:04:11.168Z,100.00
2022-11-05T22:06:38.152Z,100.00
2022-11-05T22:09:04.758Z,100.00
2022-11-05T22:11:35.109Z,100.00
2022-11-05T22:14:01.724Z,100.00
2022-11-05T22:16:28.256Z,100.00
2022-11-05T22:18:58.250Z,100.00
2022-11-05T22:21:24.884Z,100.00
2022-11-05T22:23:52.295Z,100.00
2022-11-05T22:26:18.880Z,100.00
2022-11-05T22:28:45.478Z,100.00
2022-11-05T22:31:13.595Z,100.00
2022-11-05T22:33:40.379Z,100.00
2022-11-05T22:36:07.382Z,100.00
2022-11-05T22:38:33.993Z,100.00
2022-11-05T22:41:00.662Z,100.00
2022-11-05T22:43:27.234Z,100.00
2022-11-05T22:45:53.757Z,100.00
2022-11-05T22:48:20.339Z,100.00
2022-11-05T22:50:47.001Z,100.00
2022-11-05T22:53:13.568Z,100.00
2022-11-05T22:55:40.104Z,100.00
2022-11-05T22:58:06.725Z,100.00
2022-11-05T23:00:37.040Z,100.00
2022-11-05T23:03:04.252Z,100.00
2022-11-05T23:05:31.084Z,100.00
2022-11-05T23:08:16.284Z,100.00
2022-11-05T23:11:01.474Z,100.00
2022-11-05T23:13:28.019Z,100.00
2022-11-05T23:16:13.316Z,100.00
2022-11-05T23:18:58.251Z,100.00
2022-11-05T23:21:43.598Z,100.00
2022-11-05T23:24:11.136Z,100.00
2022-11-05T23:26:50.800Z,100.00
2022-11-05T23:29:21.501Z,100.00
2022-11-05T23:32:06.651Z,100.00
2022-11-05T23:34:33.351Z,100.00
2022-11-05T23:37:18.700Z,100.00
2022-11-05T23:39:45.313Z,100.00
2022-11-05T23:42:30.689Z,100.00
2022-11-05T23:45:15.896Z,100.00
2022-11-05T23:48:01.446Z,100.00
2022-11-05T23:50:29.351Z,100.00
2022-11-05T23:52:55.944Z,100.00
2022-11-05T23:55:23.479Z,100.00
2022-11-05T23:57:50.191Z,100.00
